Notice: Undefined index: language in /var/www/vam/vam/index.php on line 25

 Air Côte d'Ivoire Virtuel



 METAR AND TAF INFORMATION
METAR FOR GQNO
ADDS - METARS form results

(2209 UTC 25 May 2019)
Data provider http://aviationweather.gov/metar/data/
 
METAR text: GQNO 252130Z 32014KT 6000 BKN006 18/17 Q1010 NOSIG
Conditions at: GQNO (NOUAKCHOTT/OUMTO, MR) observed 2130 UTC 25 May 2019
Temperature: 18.0°C (64°F)
Dewpoint: 17.0°C (63°F) [RH = 94%]
Pressure (altimeter): 29.82 inches Hg (1010.0 mb)
Winds: from the NW (320 degrees) at 16 MPH (14 knots; 7.2 m/s)
Visibility: 4 miles ( 6 km)
Ceiling: 600 feet AGL
Clouds: broken clouds at 600 feet AGL
Weather: no significant weather observed at this time

Forecast for: COR
Text: TAF COR GQNO 251700Z 2518/2624 34015KT 7000 FEW010
Forecast period: 1800 UTC 25 May 2019 to 0000 UTC 27 May 2019
Forecast type: FROM: standard forecast or significant change
Winds: from the NNW (340 degrees) at 17 MPH (15 knots; 7.7 m/s)
Visibility: 4 miles (7 km)
Ceiling: at least 12,000 feet AGL
Clouds: few clouds at 1000 feet AGL
Weather: no significant weather forecast for this period
Text: PROB40
Forecast period: 0200 to 1000 UTC 26 May 2019
Forecast type: TEMPORARY: The following changes expected for less than half the time period
Visibility: missing
Ceiling: 600 feet AGL
Clouds: broken clouds at 600 feet AGL
Weather: no significant weather forecast for this period

 AIRPORT MAP

 RUNWAY INFORMATION

 AIRPORT FREQUENCIES

 AIRPORT NEAR NAVIGATION AIDS